Winnebago, Illinois
Current Conditions -  °F | °C
As of 7:54 PM on Friday 24 Oct 2014 (Local Time) from KRFD Reporting Station
Overcast Overcast  
Wind Chill: 58°   Ceiling: 3700
Heat Index: 58°   Visibility: 10mi
Dew Point: 47°   Wind: 3mph
Humidity: 67%   Direction: 190°S
Pressure: 29.96"   Gusts: NA
Location:  42.27°N, 89.24°W
Report Text: KRFD 250054Z 19003KT 10SM OVC037 14/08 A2996 RMK AO2 SLP147 T01440083
Loading
Personal Weather Stations






























Interactive Weather Map
Tropical Storm Tracking
New forecast layout! Learn more

10-Day Weather Forecast

Advertisements
Track Severe Weather on mobile